sensor_id;sensor_type;location;lat;lon;timestamp;temperature;humidity
62583;DHT22;48641;51.676;5.808;2022-12-29T00:01:27;15.90;65.90
62583;DHT22;48641;51.676;5.808;2022-12-29T00:03:53;15.90;65.90
62583;DHT22;48641;51.676;5.808;2022-12-29T00:06:19;15.90;65.90
62583;DHT22;48641;51.676;5.808;2022-12-29T00:08:44;15.90;66.90
62583;DHT22;48641;51.676;5.808;2022-12-29T00:11:12;15.90;66.00
62583;DHT22;48641;51.676;5.808;2022-12-29T00:13:38;15.90;66.00
62583;DHT22;48641;51.676;5.808;2022-12-29T00:16:23;15.90;66.10
62583;DHT22;48641;51.676;5.808;2022-12-29T00:18:48;15.80;66.20
62583;DHT22;48641;51.676;5.808;2022-12-29T00:21:17;15.80;66.40
62583;DHT22;48641;51.676;5.808;2022-12-29T00:24:01;15.80;66.60
62583;DHT22;48641;51.676;5.808;2022-12-29T00:26:48;15.80;66.50
62583;DHT22;48641;51.676;5.808;2022-12-29T00:29:33;15.80;66.50
62583;DHT22;48641;51.676;5.808;2022-12-29T00:32:17;15.80;66.50
62583;DHT22;48641;51.676;5.808;2022-12-29T00:35:01;15.70;67.40
62583;DHT22;48641;51.676;5.808;2022-12-29T00:37:42;15.70;66.50
62583;DHT22;48641;51.676;5.808;2022-12-29T00:40:27;15.70;66.50
62583;DHT22;48641;51.676;5.808;2022-12-29T00:43:11;15.70;66.50
62583;DHT22;48641;51.676;5.808;2022-12-29T00:45:55;15.70;66.50
62583;DHT22;48641;51.676;5.808;2022-12-29T00:48:21;15.70;66.60
62583;DHT22;48641;51.676;5.808;2022-12-29T00:51:06;15.70;66.60
62583;DHT22;48641;51.676;5.808;2022-12-29T00:53:32;15.60;66.60
62583;DHT22;48641;51.676;5.808;2022-12-29T00:55:58;15.60;66.60
62583;DHT22;48641;51.676;5.808;2022-12-29T00:58:27;15.60;66.60
62583;DHT22;48641;51.676;5.808;2022-12-29T01:01:00;15.60;67.60
62583;DHT22;48641;51.676;5.808;2022-12-29T01:03:25;15.60;66.70
62583;DHT22;48641;51.676;5.808;2022-12-29T01:05:51;15.60;66.60
62583;DHT22;48641;51.676;5.808;2022-12-29T01:08:16;15.60;66.70
62583;DHT22;48641;51.676;5.808;2022-12-29T01:10:42;15.60;66.70
62583;DHT22;48641;51.676;5.808;2022-12-29T01:13:07;15.60;66.70
62583;DHT22;48641;51.676;5.808;2022-12-29T01:15:33;15.60;66.70
62583;DHT22;48641;51.676;5.808;2022-12-29T01:17:58;15.60;66.80
62583;DHT22;48641;51.676;5.808;2022-12-29T01:20:24;15.60;66.80
62583;DHT22;48641;51.676;5.808;2022-12-29T01:22:49;15.60;66.80
62583;DHT22;48641;51.676;5.808;2022-12-29T01:25:15;15.60;66.90
62583;DHT22;48641;51.676;5.808;2022-12-29T01:27:41;15.60;66.80
62583;DHT22;48641;51.676;5.808;2022-12-29T01:30:07;15.50;66.80
62583;DHT22;48641;51.676;5.808;2022-12-29T01:32:32;15.60;66.90
62583;DHT22;48641;51.676;5.808;2022-12-29T01:34:58;15.60;67.00
62583;DHT22;48641;51.676;5.808;2022-12-29T01:37:24;15.60;67.10
62583;DHT22;48641;51.676;5.808;2022-12-29T01:39:50;15.50;67.20
62583;DHT22;48641;51.676;5.808;2022-12-29T01:42:22;15.50;67.30
62583;DHT22;48641;51.676;5.808;2022-12-29T01:44:56;15.50;67.50
62583;DHT22;48641;51.676;5.808;2022-12-29T01:47:30;15.50;67.50
62583;DHT22;48641;51.676;5.808;2022-12-29T01:49:59;15.50;67.60
62583;DHT22;48641;51.676;5.808;2022-12-29T01:52:28;15.50;67.60
62583;DHT22;48641;51.676;5.808;2022-12-29T01:54:56;15.50;67.60
62583;DHT22;48641;51.676;5.808;2022-12-29T01:57:28;15.50;67.60
62583;DHT22;48641;51.676;5.808;2022-12-29T02:00:03;15.50;67.70
62583;DHT22;48641;51.676;5.808;2022-12-29T02:02:30;15.50;67.70
62583;DHT22;48641;51.676;5.808;2022-12-29T02:04:57;15.40;67.60
62583;DHT22;48641;51.676;5.808;2022-12-29T02:07:25;15.40;67.60
62583;DHT22;48641;51.676;5.808;2022-12-29T02:09:53;15.40;67.60
62583;DHT22;48641;51.676;5.808;2022-12-29T02:12:21;15.40;67.70
62583;DHT22;48641;51.676;5.808;2022-12-29T02:14:50;15.40;67.70
62583;DHT22;48641;51.676;5.808;2022-12-29T02:23:16;15.40;67.70
62583;DHT22;48641;51.676;5.808;2022-12-29T02:31:45;15.40;67.80
62583;DHT22;48641;51.676;5.808;2022-12-29T02:36:58;15.30;67.90
62583;DHT22;48641;51.676;5.808;2022-12-29T02:39:38;15.30;67.90
62583;DHT22;48641;51.676;5.808;2022-12-29T02:47:38;15.30;68.00
62583;DHT22;48641;51.676;5.808;2022-12-29T02:50:27;15.30;67.90
62583;DHT22;48641;51.676;5.808;2022-12-29T02:53:02;15.30;68.00
62583;DHT22;48641;51.676;5.808;2022-12-29T02:55:29;15.30;69.10
62583;DHT22;48641;51.676;5.808;2022-12-29T02:58:17;15.20;68.10
62583;DHT22;48641;51.676;5.808;2022-12-29T03:06:14;15.20;68.30
62583;DHT22;48641;51.676;5.808;2022-12-29T03:09:02;15.20;68.40
62583;DHT22;48641;51.676;5.808;2022-12-29T03:11:38;15.30;68.40
62583;DHT22;48641;51.676;5.808;2022-12-29T03:14:58;15.20;68.40
62583;DHT22;48641;51.676;5.808;2022-12-29T03:17:53;15.20;68.40
62583;DHT22;48641;51.676;5.808;2022-12-29T03:20:32;15.20;68.40
62583;DHT22;48641;51.676;5.808;2022-12-29T03:23:03;15.20;68.40
62583;DHT22;48641;51.676;5.808;2022-12-29T03:25:36;15.20;68.40
62583;DHT22;48641;51.676;5.808;2022-12-29T03:28:11;15.30;68.40
62583;DHT22;48641;51.676;5.808;2022-12-29T03:30:38;15.20;69.30
62583;DHT22;48641;51.676;5.808;2022-12-29T03:33:08;15.20;68.40
62583;DHT22;48641;51.676;5.808;2022-12-29T03:35:37;15.20;68.30
62583;DHT22;48641;51.676;5.808;2022-12-29T03:38:06;15.20;68.30
62583;DHT22;48641;51.676;5.808;2022-12-29T03:40:33;15.20;68.30
62583;DHT22;48641;51.676;5.808;2022-12-29T03:43:00;15.20;68.30
62583;DHT22;48641;51.676;5.808;2022-12-29T03:45:26;15.10;68.50
62583;DHT22;48641;51.676;5.808;2022-12-29T03:47:53;15.10;68.50
62583;DHT22;48641;51.676;5.808;2022-12-29T03:50:18;15.20;68.50
62583;DHT22;48641;51.676;5.808;2022-12-29T03:52:44;15.20;68.50
62583;DHT22;48641;51.676;5.808;2022-12-29T03:55:10;15.20;68.50
62583;DHT22;48641;51.676;5.808;2022-12-29T03:57:35;15.20;68.40
62583;DHT22;48641;51.676;5.808;2022-12-29T04:00:03;15.20;68.40
62583;DHT22;48641;51.676;5.808;2022-12-29T04:02:29;15.20;68.40
62583;DHT22;48641;51.676;5.808;2022-12-29T04:04:54;15.20;68.40
62583;DHT22;48641;51.676;5.808;2022-12-29T04:07:20;15.20;68.40
62583;DHT22;48641;51.676;5.808;2022-12-29T04:09:45;15.20;68.40
62583;DHT22;48641;51.676;5.808;2022-12-29T04:12:11;15.20;68.40
62583;DHT22;48641;51.676;5.808;2022-12-29T04:14:36;15.20;68.40
62583;DHT22;48641;51.676;5.808;2022-12-29T04:17:02;15.20;68.40
62583;DHT22;48641;51.676;5.808;2022-12-29T04:19:28;15.20;68.40
62583;DHT22;48641;51.676;5.808;2022-12-29T04:21:53;15.20;68.40
62583;DHT22;48641;51.676;5.808;2022-12-29T04:24:19;15.20;68.40
62583;DHT22;48641;51.676;5.808;2022-12-29T04:26:44;15.20;68.50
62583;DHT22;48641;51.676;5.808;2022-12-29T04:29:10;15.10;68.40
62583;DHT22;48641;51.676;5.808;2022-12-29T04:31:35;15.20;68.40
62583;DHT22;48641;51.676;5.808;2022-12-29T04:34:01;15.20;68.40
62583;DHT22;48641;51.676;5.808;2022-12-29T04:36:27;15.20;68.50
62583;DHT22;48641;51.676;5.808;2022-12-29T04:38:53;15.20;68.40
62583;DHT22;48641;51.676;5.808;2022-12-29T04:41:18;15.20;68.40
62583;DHT22;48641;51.676;5.808;2022-12-29T04:43:44;15.20;68.50
62583;DHT22;48641;51.676;5.808;2022-12-29T04:46:09;15.20;68.40
62583;DHT22;48641;51.676;5.808;2022-12-29T04:48:35;15.20;68.40
62583;DHT22;48641;51.676;5.808;2022-12-29T04:51:01;15.20;68.40
62583;DHT22;48641;51.676;5.808;2022-12-29T04:53:26;15.10;68.30
62583;DHT22;48641;51.676;5.808;2022-12-29T04:55:52;15.20;68.40
62583;DHT22;48641;51.676;5.808;2022-12-29T04:58:19;15.20;68.40
62583;DHT22;48641;51.676;5.808;2022-12-29T05:00:45;15.10;69.30
62583;DHT22;48641;51.676;5.808;2022-12-29T05:03:10;15.20;68.40
62583;DHT22;48641;51.676;5.808;2022-12-29T05:05:36;15.20;68.40
62583;DHT22;48641;51.676;5.808;2022-12-29T05:08:01;15.10;68.40
62583;DHT22;48641;51.676;5.808;2022-12-29T05:10:27;15.10;68.30
62583;DHT22;48641;51.676;5.808;2022-12-29T05:12:53;15.10;68.40
62583;DHT22;48641;51.676;5.808;2022-12-29T05:15:18;15.10;68.30
62583;DHT22;48641;51.676;5.808;2022-12-29T05:17:44;15.10;68.40
62583;DHT22;48641;51.676;5.808;2022-12-29T05:20:10;15.10;68.40
62583;DHT22;48641;51.676;5.808;2022-12-29T05:22:36;15.10;68.40
62583;DHT22;48641;51.676;5.808;2022-12-29T05:25:02;15.10;68.40
62583;DHT22;48641;51.676;5.808;2022-12-29T05:27:27;15.10;68.40
62583;DHT22;48641;51.676;5.808;2022-12-29T05:29:53;15.10;68.40
62583;DHT22;48641;51.676;5.808;2022-12-29T05:32:19;15.10;68.40
62583;DHT22;48641;51.676;5.808;2022-12-29T05:34:44;15.10;68.40
62583;DHT22;48641;51.676;5.808;2022-12-29T05:37:10;15.10;68.40
62583;DHT22;48641;51.676;5.808;2022-12-29T05:39:35;15.10;68.50
62583;DHT22;48641;51.676;5.808;2022-12-29T05:42:01;15.10;68.40
62583;DHT22;48641;51.676;5.808;2022-12-29T05:44:27;15.10;68.40
62583;DHT22;48641;51.676;5.808;2022-12-29T05:46:52;15.00;69.30
62583;DHT22;48641;51.676;5.808;2022-12-29T05:49:18;15.00;68.40
62583;DHT22;48641;51.676;5.808;2022-12-29T05:51:43;15.00;68.40
62583;DHT22;48641;51.676;5.808;2022-12-29T05:54:09;15.10;68.50
62583;DHT22;48641;51.676;5.808;2022-12-29T05:56:34;15.10;68.50
62583;DHT22;48641;51.676;5.808;2022-12-29T05:59:00;15.10;68.50
62583;DHT22;48641;51.676;5.808;2022-12-29T06:01:26;15.10;68.60
62583;DHT22;48641;51.676;5.808;2022-12-29T06:03:52;15.10;68.50
62583;DHT22;48641;51.676;5.808;2022-12-29T06:06:17;15.10;68.50
62583;DHT22;48641;51.676;5.808;2022-12-29T06:08:43;15.10;68.40
62583;DHT22;48641;51.676;5.808;2022-12-29T06:11:08;15.10;68.40
62583;DHT22;48641;51.676;5.808;2022-12-29T06:13:34;15.10;68.40
62583;DHT22;48641;51.676;5.808;2022-12-29T06:15:59;15.10;68.30
62583;DHT22;48641;51.676;5.808;2022-12-29T06:18:25;15.10;68.40
62583;DHT22;48641;51.676;5.808;2022-12-29T06:20:51;15.10;68.30
62583;DHT22;48641;51.676;5.808;2022-12-29T06:23:16;15.10;68.30
62583;DHT22;48641;51.676;5.808;2022-12-29T06:25:43;15.00;68.30
62583;DHT22;48641;51.676;5.808;2022-12-29T06:28:09;15.00;68.30
62583;DHT22;48641;51.676;5.808;2022-12-29T06:30:36;15.00;68.30
62583;DHT22;48641;51.676;5.808;2022-12-29T06:33:01;15.00;68.30
62583;DHT22;48641;51.676;5.808;2022-12-29T06:35:27;15.00;68.30
62583;DHT22;48641;51.676;5.808;2022-12-29T06:37:53;15.00;68.30
62583;DHT22;48641;51.676;5.808;2022-12-29T06:40:18;15.00;68.30
62583;DHT22;48641;51.676;5.808;2022-12-29T06:42:44;15.00;68.30
62583;DHT22;48641;51.676;5.808;2022-12-29T06:45:10;15.00;68.30
62583;DHT22;48641;51.676;5.808;2022-12-29T06:47:35;15.00;68.30
62583;DHT22;48641;51.676;5.808;2022-12-29T06:50:01;15.00;68.30
62583;DHT22;48641;51.676;5.808;2022-12-29T06:52:27;15.00;68.30
62583;DHT22;48641;51.676;5.808;2022-12-29T06:54:54;15.00;68.30
62583;DHT22;48641;51.676;5.808;2022-12-29T06:57:20;15.00;68.30
62583;DHT22;48641;51.676;5.808;2022-12-29T06:59:46;15.00;68.30
62583;DHT22;48641;51.676;5.808;2022-12-29T07:02:12;14.90;68.30
62583;DHT22;48641;51.676;5.808;2022-12-29T07:04:39;14.90;68.30
62583;DHT22;48641;51.676;5.808;2022-12-29T07:07:05;15.00;68.30
62583;DHT22;48641;51.676;5.808;2022-12-29T07:09:31;14.90;68.30
62583;DHT22;48641;51.676;5.808;2022-12-29T07:11:56;14.90;68.30
62583;DHT22;48641;51.676;5.808;2022-12-29T07:14:22;14.90;68.30
62583;DHT22;48641;51.676;5.808;2022-12-29T07:16:48;14.90;68.40
62583;DHT22;48641;51.676;5.808;2022-12-29T07:19:13;14.90;68.40
62583;DHT22;48641;51.676;5.808;2022-12-29T07:21:39;14.90;68.40
62583;DHT22;48641;51.676;5.808;2022-12-29T07:24:05;15.00;68.50
62583;DHT22;48641;51.676;5.808;2022-12-29T07:26:30;15.00;68.50
62583;DHT22;48641;51.676;5.808;2022-12-29T07:28:56;15.00;68.50
62583;DHT22;48641;51.676;5.808;2022-12-29T07:31:22;15.00;68.40
62583;DHT22;48641;51.676;5.808;2022-12-29T07:33:48;15.00;68.40
62583;DHT22;48641;51.676;5.808;2022-12-29T07:36:15;15.00;68.30
62583;DHT22;48641;51.676;5.808;2022-12-29T07:38:41;15.00;68.30
62583;DHT22;48641;51.676;5.808;2022-12-29T07:41:07;15.00;68.30
62583;DHT22;48641;51.676;5.808;2022-12-29T07:43:33;15.00;68.20
62583;DHT22;48641;51.676;5.808;2022-12-29T07:45:58;14.90;68.20
62583;DHT22;48641;51.676;5.808;2022-12-29T07:48:24;14.90;68.20
62583;DHT22;48641;51.676;5.808;2022-12-29T07:50:49;14.90;68.20
62583;DHT22;48641;51.676;5.808;2022-12-29T07:53:15;14.90;68.10
62583;DHT22;48641;51.676;5.808;2022-12-29T07:55:41;14.90;68.20
62583;DHT22;48641;51.676;5.808;2022-12-29T07:58:06;14.90;68.20
62583;DHT22;48641;51.676;5.808;2022-12-29T08:00:32;14.90;68.20
62583;DHT22;48641;51.676;5.808;2022-12-29T08:02:58;14.90;68.20
62583;DHT22;48641;51.676;5.808;2022-12-29T08:05:23;14.90;68.30
62583;DHT22;48641;51.676;5.808;2022-12-29T08:07:49;14.90;68.20
62583;DHT22;48641;51.676;5.808;2022-12-29T08:10:15;14.90;68.30
62583;DHT22;48641;51.676;5.808;2022-12-29T08:12:41;14.90;68.20
62583;DHT22;48641;51.676;5.808;2022-12-29T08:15:09;14.90;68.30
62583;DHT22;48641;51.676;5.808;2022-12-29T08:17:35;14.90;68.20
62583;DHT22;48641;51.676;5.808;2022-12-29T08:20:02;14.80;68.10
62583;DHT22;48641;51.676;5.808;2022-12-29T08:22:27;14.80;68.20
62583;DHT22;48641;51.676;5.808;2022-12-29T08:24:53;14.80;68.20
62583;DHT22;48641;51.676;5.808;2022-12-29T08:27:19;14.80;69.10
62583;DHT22;48641;51.676;5.808;2022-12-29T08:29:45;14.80;68.10
62583;DHT22;48641;51.676;5.808;2022-12-29T08:32:11;14.80;68.20
62583;DHT22;48641;51.676;5.808;2022-12-29T08:34:36;14.80;68.10
62583;DHT22;48641;51.676;5.808;2022-12-29T08:37:02;14.80;68.10
62583;DHT22;48641;51.676;5.808;2022-12-29T08:39:28;14.80;68.20
62583;DHT22;48641;51.676;5.808;2022-12-29T08:41:54;14.80;68.20
62583;DHT22;48641;51.676;5.808;2022-12-29T08:44:20;14.80;68.20
62583;DHT22;48641;51.676;5.808;2022-12-29T08:46:45;14.80;68.20
62583;DHT22;48641;51.676;5.808;2022-12-29T08:49:14;14.80;68.20
62583;DHT22;48641;51.676;5.808;2022-12-29T08:51:39;14.80;68.30
62583;DHT22;48641;51.676;5.808;2022-12-29T08:54:05;14.80;68.30
62583;DHT22;48641;51.676;5.808;2022-12-29T08:56:31;14.80;68.30
62583;DHT22;48641;51.676;5.808;2022-12-29T08:58:56;14.80;68.30
62583;DHT22;48641;51.676;5.808;2022-12-29T09:01:22;14.90;68.30
62583;DHT22;48641;51.676;5.808;2022-12-29T09:03:48;14.90;68.20
62583;DHT22;48641;51.676;5.808;2022-12-29T09:06:15;14.80;68.10
62583;DHT22;48641;51.676;5.808;2022-12-29T09:08:42;14.80;68.10
62583;DHT22;48641;51.676;5.808;2022-12-29T09:11:19;14.80;68.10
62583;DHT22;48641;51.676;5.808;2022-12-29T09:13:46;14.80;68.10
62583;DHT22;48641;51.676;5.808;2022-12-29T09:16:12;14.80;68.10
62583;DHT22;48641;51.676;5.808;2022-12-29T09:18:38;14.80;68.20
62583;DHT22;48641;51.676;5.808;2022-12-29T09:21:05;14.80;68.10
62583;DHT22;48641;51.676;5.808;2022-12-29T09:23:32;14.80;68.10
62583;DHT22;48641;51.676;5.808;2022-12-29T09:25:58;14.80;68.10
62583;DHT22;48641;51.676;5.808;2022-12-29T09:28:24;14.80;68.10
62583;DHT22;48641;51.676;5.808;2022-12-29T09:30:50;14.80;68.10
62583;DHT22;48641;51.676;5.808;2022-12-29T09:33:16;14.80;68.10
62583;DHT22;48641;51.676;5.808;2022-12-29T09:35:43;14.80;68.10
62583;DHT22;48641;51.676;5.808;2022-12-29T09:38:09;14.80;68.10
62583;DHT22;48641;51.676;5.808;2022-12-29T09:40:34;14.80;68.00
62583;DHT22;48641;51.676;5.808;2022-12-29T09:48:16;14.70;68.10
62583;DHT22;48641;51.676;5.808;2022-12-29T09:50:50;14.70;69.00
62583;DHT22;48641;51.676;5.808;2022-12-29T09:53:19;14.80;68.10
62583;DHT22;48641;51.676;5.808;2022-12-29T09:55:49;14.70;68.10
62583;DHT22;48641;51.676;5.808;2022-12-29T09:58:24;14.70;68.10
62583;DHT22;48641;51.676;5.808;2022-12-29T10:03:55;14.70;67.90
62583;DHT22;48641;51.676;5.808;2022-12-29T10:06:54;14.70;68.20
62583;DHT22;48641;51.676;5.808;2022-12-29T10:15:10;14.70;68.30
62583;DHT22;48641;51.676;5.808;2022-12-29T10:17:54;14.70;68.40
62583;DHT22;48641;51.676;5.808;2022-12-29T10:20:47;14.70;68.40
62583;DHT22;48641;51.676;5.808;2022-12-29T10:23:53;14.70;68.40
62583;DHT22;48641;51.676;5.808;2022-12-29T10:26:23;14.70;68.40
62583;DHT22;48641;51.676;5.808;2022-12-29T10:28:53;14.70;68.50
62583;DHT22;48641;51.676;5.808;2022-12-29T10:31:27;14.70;68.40
62583;DHT22;48641;51.676;5.808;2022-12-29T10:33:59;14.70;68.40
62583;DHT22;48641;51.676;5.808;2022-12-29T10:36:38;14.70;68.30
62583;DHT22;48641;51.676;5.808;2022-12-29T10:39:26;14.70;68.30
62583;DHT22;48641;51.676;5.808;2022-12-29T10:44:38;14.70;68.20
62583;DHT22;48641;51.676;5.808;2022-12-29T10:47:06;14.70;68.30
62583;DHT22;48641;51.676;5.808;2022-12-29T10:49:39;14.70;68.30
62583;DHT22;48641;51.676;5.808;2022-12-29T10:52:06;14.70;68.30
62583;DHT22;48641;51.676;5.808;2022-12-29T10:54:46;14.70;68.30
62583;DHT22;48641;51.676;5.808;2022-12-29T10:57:30;14.70;68.30
62583;DHT22;48641;51.676;5.808;2022-12-29T10:59:58;14.70;68.30
62583;DHT22;48641;51.676;5.808;2022-12-29T11:02:36;14.70;68.30
62583;DHT22;48641;51.676;5.808;2022-12-29T11:05:15;14.70;68.30
62583;DHT22;48641;51.676;5.808;2022-12-29T11:07:43;14.70;68.40
62583;DHT22;48641;51.676;5.808;2022-12-29T11:10:29;14.70;68.30
62583;DHT22;48641;51.676;5.808;2022-12-29T11:13:01;14.70;68.30
62583;DHT22;48641;51.676;5.808;2022-12-29T11:15:42;14.70;68.30
62583;DHT22;48641;51.676;5.808;2022-12-29T11:18:36;14.70;68.30
62583;DHT22;48641;51.676;5.808;2022-12-29T11:23:57;14.70;68.40
62583;DHT22;48641;51.676;5.808;2022-12-29T11:26:23;14.60;68.40
62583;DHT22;48641;51.676;5.808;2022-12-29T11:31:48;14.70;68.30
62583;DHT22;48641;51.676;5.808;2022-12-29T11:34:26;14.70;68.40
62583;DHT22;48641;51.676;5.808;2022-12-29T11:36:57;14.60;68.40
62583;DHT22;48641;51.676;5.808;2022-12-29T11:39:56;14.60;68.40
62583;DHT22;48641;51.676;5.808;2022-12-29T11:42:30;14.70;69.40
62583;DHT22;48641;51.676;5.808;2022-12-29T11:45:09;14.60;68.50
62583;DHT22;48641;51.676;5.808;2022-12-29T11:47:42;14.70;68.70
62583;DHT22;48641;51.676;5.808;2022-12-29T11:50:18;14.70;68.70
62583;DHT22;48641;51.676;5.808;2022-12-29T11:52:44;14.70;68.70
62583;DHT22;48641;51.676;5.808;2022-12-29T11:55:21;14.70;68.70
62583;DHT22;48641;51.676;5.808;2022-12-29T11:57:48;14.80;68.60
62583;DHT22;48641;51.676;5.808;2022-12-29T12:00:20;14.70;68.50
62583;DHT22;48641;51.676;5.808;2022-12-29T12:03:18;14.80;68.50
62583;DHT22;48641;51.676;5.808;2022-12-29T12:08:55;14.70;68.50
62583;DHT22;48641;51.676;5.808;2022-12-29T12:11:29;14.80;68.50
62583;DHT22;48641;51.676;5.808;2022-12-29T12:14:07;14.70;68.50
62583;DHT22;48641;51.676;5.808;2022-12-29T12:16:41;14.70;68.50
62583;DHT22;48641;51.676;5.808;2022-12-29T12:22:30;14.70;68.40
62583;DHT22;48641;51.676;5.808;2022-12-29T12:27:39;14.70;68.60
62583;DHT22;48641;51.676;5.808;2022-12-29T12:30:20;14.70;68.50
62583;DHT22;48641;51.676;5.808;2022-12-29T12:33:06;14.70;68.60
62583;DHT22;48641;51.676;5.808;2022-12-29T12:46:19;14.70;68.50
62583;DHT22;48641;51.676;5.808;2022-12-29T13:05:46;14.70;68.70
62583;DHT22;48641;51.676;5.808;2022-12-29T13:11:51;14.70;68.60
62583;DHT22;48641;51.676;5.808;2022-12-29T13:20:02;14.70;68.80
62583;DHT22;48641;51.676;5.808;2022-12-29T13:22:42;14.70;68.80
62583;DHT22;48641;51.676;5.808;2022-12-29T13:25:27;14.70;68.90
62583;DHT22;48641;51.676;5.808;2022-12-29T13:36:09;14.70;68.60
62583;DHT22;48641;51.676;5.808;2022-12-29T13:38:45;14.80;68.70
62583;DHT22;48641;51.676;5.808;2022-12-29T13:41:16;14.70;68.60
62583;DHT22;48641;51.676;5.808;2022-12-29T13:43:44;14.70;68.60
62583;DHT22;48641;51.676;5.808;2022-12-29T13:46:28;14.70;68.60
62583;DHT22;48641;51.676;5.808;2022-12-29T13:49:02;14.80;68.60
62583;DHT22;48641;51.676;5.808;2022-12-29T13:51:30;14.70;68.60
62583;DHT22;48641;51.676;5.808;2022-12-29T13:56:29;14.70;68.60
62583;DHT22;48641;51.676;5.808;2022-12-29T14:01:40;14.80;68.50
62583;DHT22;48641;51.676;5.808;2022-12-29T14:04:13;14.70;68.50
62583;DHT22;48641;51.676;5.808;2022-12-29T14:06:40;14.70;68.50
62583;DHT22;48641;51.676;5.808;2022-12-29T14:11:55;14.70;68.50
62583;DHT22;48641;51.676;5.808;2022-12-29T14:14:28;14.70;68.50
62583;DHT22;48641;51.676;5.808;2022-12-29T14:17:09;14.70;68.50
62583;DHT22;48641;51.676;5.808;2022-12-29T14:19:41;14.70;68.40
62583;DHT22;48641;51.676;5.808;2022-12-29T14:22:10;14.70;69.40
62583;DHT22;48641;51.676;5.808;2022-12-29T14:24:42;14.70;68.60
62583;DHT22;48641;51.676;5.808;2022-12-29T14:34:49;14.70;68.50
62583;DHT22;48641;51.676;5.808;2022-12-29T14:37:33;14.70;68.60
62583;DHT22;48641;51.676;5.808;2022-12-29T14:40:24;14.70;68.50
62583;DHT22;48641;51.676;5.808;2022-12-29T14:42:55;14.70;68.50
62583;DHT22;48641;51.676;5.808;2022-12-29T14:45:28;14.70;68.70
62583;DHT22;48641;51.676;5.808;2022-12-29T14:47:55;14.70;68.70
62583;DHT22;48641;51.676;5.808;2022-12-29T14:52:56;14.70;68.70
62583;DHT22;48641;51.676;5.808;2022-12-29T14:55:39;14.70;68.70
62583;DHT22;48641;51.676;5.808;2022-12-29T14:58:12;14.70;68.60
62583;DHT22;48641;51.676;5.808;2022-12-29T15:00:39;14.70;68.60
62583;DHT22;48641;51.676;5.808;2022-12-29T15:03:17;14.70;68.60
62583;DHT22;48641;51.676;5.808;2022-12-29T15:05:50;14.70;68.60
62583;DHT22;48641;51.676;5.808;2022-12-29T15:08:22;14.80;68.60
62583;DHT22;48641;51.676;5.808;2022-12-29T15:13:23;14.70;68.50
62583;DHT22;48641;51.676;5.808;2022-12-29T15:15:50;14.70;68.50
62583;DHT22;48641;51.676;5.808;2022-12-29T15:18:26;14.70;68.50
62583;DHT22;48641;51.676;5.808;2022-12-29T15:20:56;14.70;68.40
62583;DHT22;48641;51.676;5.808;2022-12-29T15:23:22;14.70;68.40
62583;DHT22;48641;51.676;5.808;2022-12-29T15:26:14;14.70;68.40
62583;DHT22;48641;51.676;5.808;2022-12-29T15:28:47;14.60;68.60
62583;DHT22;48641;51.676;5.808;2022-12-29T15:31:16;14.60;68.70
62583;DHT22;48641;51.676;5.808;2022-12-29T15:33:46;14.60;68.70
62583;DHT22;48641;51.676;5.808;2022-12-29T15:36:24;14.60;68.70
62583;DHT22;48641;51.676;5.808;2022-12-29T15:38:51;14.60;68.50
62583;DHT22;48641;51.676;5.808;2022-12-29T15:41:23;14.60;68.70
62583;DHT22;48641;51.676;5.808;2022-12-29T15:46:19;14.60;68.60
62583;DHT22;48641;51.676;5.808;2022-12-29T15:48:45;14.60;68.60
62583;DHT22;48641;51.676;5.808;2022-12-29T15:51:18;14.60;68.50
62583;DHT22;48641;51.676;5.808;2022-12-29T15:53:47;14.60;68.50
62583;DHT22;48641;51.676;5.808;2022-12-29T15:56:14;14.60;68.50
62583;DHT22;48641;51.676;5.808;2022-12-29T15:58:42;14.60;68.50
62583;DHT22;48641;51.676;5.808;2022-12-29T16:01:23;14.60;68.50
62583;DHT22;48641;51.676;5.808;2022-12-29T16:03:52;14.70;68.80
62583;DHT22;48641;51.676;5.808;2022-12-29T16:06:37;14.60;68.50
62583;DHT22;48641;51.676;5.808;2022-12-29T16:09:18;14.60;68.40
62583;DHT22;48641;51.676;5.808;2022-12-29T16:11:47;14.60;68.50
62583;DHT22;48641;51.676;5.808;2022-12-29T16:14:18;14.60;68.60
62583;DHT22;48641;51.676;5.808;2022-12-29T16:16:46;14.60;68.60
62583;DHT22;48641;51.676;5.808;2022-12-29T16:19:21;14.60;68.60
62583;DHT22;48641;51.676;5.808;2022-12-29T16:21:48;14.60;68.60
62583;DHT22;48641;51.676;5.808;2022-12-29T16:24:19;14.60;68.60
62583;DHT22;48641;51.676;5.808;2022-12-29T16:26:55;14.60;68.70
62583;DHT22;48641;51.676;5.808;2022-12-29T16:29:22;14.60;68.50
62583;DHT22;48641;51.676;5.808;2022-12-29T16:31:53;14.70;68.50
62583;DHT22;48641;51.676;5.808;2022-12-29T16:34:29;14.70;68.90
62583;DHT22;48641;51.676;5.808;2022-12-29T16:36:58;14.80;68.50
62583;DHT22;48641;51.676;5.808;2022-12-29T16:41:59;14.80;68.50
62583;DHT22;48641;51.676;5.808;2022-12-29T16:44:30;14.80;68.40
62583;DHT22;48641;51.676;5.808;2022-12-29T16:49:38;14.90;68.40
62583;DHT22;48641;51.676;5.808;2022-12-29T16:52:27;14.90;68.30
62583;DHT22;48641;51.676;5.808;2022-12-29T16:54:56;15.00;68.20
62583;DHT22;48641;51.676;5.808;2022-12-29T16:57:27;15.00;68.30
62583;DHT22;48641;51.676;5.808;2022-12-29T16:59:57;15.00;68.20
62583;DHT22;48641;51.676;5.808;2022-12-29T17:02:26;15.10;68.30
62583;DHT22;48641;51.676;5.808;2022-12-29T17:04:53;15.10;68.20
62583;DHT22;48641;51.676;5.808;2022-12-29T17:07:23;15.10;68.10
62583;DHT22;48641;51.676;5.808;2022-12-29T17:09:50;15.20;68.10
62583;DHT22;48641;51.676;5.808;2022-12-29T17:12:28;15.30;68.00
62583;DHT22;48641;51.676;5.808;2022-12-29T17:15:06;15.40;68.00
62583;DHT22;48641;51.676;5.808;2022-12-29T17:17:46;15.40;67.90
62583;DHT22;48641;51.676;5.808;2022-12-29T17:20:39;15.40;67.90
62583;DHT22;48641;51.676;5.808;2022-12-29T17:23:14;15.50;67.60
62583;DHT22;48641;51.676;5.808;2022-12-29T17:25:40;15.60;67.70
62583;DHT22;48641;51.676;5.808;2022-12-29T17:28:27;15.60;67.60
62583;DHT22;48641;51.676;5.808;2022-12-29T17:31:00;15.70;67.40
62583;DHT22;48641;51.676;5.808;2022-12-29T17:33:26;15.70;68.30
62583;DHT22;48641;51.676;5.808;2022-12-29T17:35:52;15.70;67.30
62583;DHT22;48641;51.676;5.808;2022-12-29T17:38:38;15.80;67.20
62583;DHT22;48641;51.676;5.808;2022-12-29T17:41:11;15.80;66.90
62583;DHT22;48641;51.676;5.808;2022-12-29T17:43:38;15.90;67.90
62583;DHT22;48641;51.676;5.808;2022-12-29T17:46:05;15.90;66.90
62583;DHT22;48641;51.676;5.808;2022-12-29T17:48:32;16.00;66.80
62583;DHT22;48641;51.676;5.808;2022-12-29T17:50:57;16.00;66.80
62583;DHT22;48641;51.676;5.808;2022-12-29T17:53:26;16.10;66.70
62583;DHT22;48641;51.676;5.808;2022-12-29T17:55:52;16.10;66.60
62583;DHT22;48641;51.676;5.808;2022-12-29T18:00:47;16.10;66.40
62583;DHT22;48641;51.676;5.808;2022-12-29T18:03:15;16.20;66.30